Saint-Jean-Baptiste, Canada
Current Conditions -  °F | °C
As of 11:00 AM on Thursday 29 Jan 2015 (Local Time) from CYQB Reporting Station
Broken Clouds Broken Clouds  
Wind Chill:   Ceiling: 25000
Heat Index: 12°   Visibility: 20mi
Dew Point: -2°   Wind: 5mph
Humidity: 53%   Direction: 190°S
Pressure: 30.26"   Gusts: NA
Location:  47.12°N, 70.18°W
Report Text: CYQB 291600Z 19004KT 170V250 20SM BKN250 M11/M19 A3026 RMK CI6 SLP255
Loading
Personal Weather Stations






























Interactive Weather Map New forecast layout! Learn more

10-Day Weather Forecast

Advertisements
Track Severe Weather on mobile